Time;durP1;ratioP1;P1;durP2;ratioP2;P2;SDS_P1;SDS_P2;PMS_P1;PMS_P2;Temp;Humidity;BMP_temperature;BMP_pressure;BME280_temperature;BME280_humidity;BME280_pressure;Samples;Min_cycle;Max_cycle;Signal;HPM_P1;HPM_P2
2021/04/06 00:00:59;;;;;;;21.23;7.65;;;2.80;76.00;;;;;;5045674;28;20172;-89
2021/04/06 00:03:28;;;;;;;6.60;4.88;;;2.60;76.60;;;;;;5054826;28;20171;-88
2021/04/06 00:06:05;;;;;;;10.38;5.85;;;1.80;76.40;;;;;;5054991;28;20203;-89
2021/04/06 00:08:32;;;;;;;10.68;7.13;;;1.40;76.40;;;;;;5051253;28;20182;-88
2021/04/06 00:11:00;;;;;;;10.07;6.63;;;2.00;77.50;;;;;;5044755;28;20184;-89
2021/04/06 00:13:29;;;;;;;12.55;5.57;;;0.70;75.20;;;;;;5046218;28;20220;-88
2021/04/06 00:15:55;;;;;;;11.80;5.40;;;2.20;77.90;;;;;;5031713;28;20207;-88
2021/04/06 00:18:22;;;;;;;5.00;4.40;;;1.40;76.20;;;;;;5045504;28;20234;-87
2021/04/06 00:20:50;;;;;;;9.38;4.25;;;1.60;76.30;;;;;;5031686;28;20176;-87
2021/04/06 00:23:19;;;;;;;10.95;4.65;;;1.50;76.20;;;;;;5036462;28;20203;-88
2021/04/06 00:25:50;;;;;;;10.63;7.38;;;1.70;75.70;;;;;;5051079;28;20214;-88
2021/04/06 00:28:28;;;;;;;13.30;7.80;;;1.40;76.30;;;;;;5051421;28;20168;-88
2021/04/06 00:30:56;;;;;;;16.45;9.48;;;1.50;76.60;;;;;;5050342;28;20198;-88
2021/04/06 00:33:57;;;;;;;18.33;8.32;;;1.50;77.40;;;;;;5052430;28;20164;-88
2021/04/06 00:36:25;;;;;;;16.08;8.55;;;1.60;77.00;;;;;;5050639;28;20175;-89
2021/04/06 00:38:53;;;;;;;11.70;7.95;;;2.20;78.10;;;;;;5039246;28;20198;-88
2021/04/06 00:41:22;;;;;;;12.35;7.10;;;0.90;75.70;;;;;;5053919;28;20207;-89
2021/04/06 00:43:50;;;;;;;16.67;9.35;;;2.10;77.80;;;;;;5048642;28;20190;-90
2021/04/06 00:46:20;;;;;;;15.65;6.60;;;1.80;75.90;;;;;;5048876;28;20214;-88
2021/04/06 00:48:48;;;;;;;11.05;6.00;;;1.80;75.90;;;;;;5044906;28;20160;-89
2021/04/06 00:51:19;;;;;;;14.05;5.50;;;2.60;75.90;;;;;;5040314;28;20533;-89
2021/04/06 00:54:00;;;;;;;10.60;5.18;;;2.00;74.80;;;;;;5043269;28;20258;-89
2021/04/06 00:56:38;;;;;;;12.70;5.07;;;2.10;73.70;;;;;;5040329;28;20171;-89
2021/04/06 00:59:08;;;;;;;14.80;4.80;;;2.10;73.50;;;;;;5038553;28;20259;-89
2021/04/06 01:01:36;;;;;;;8.75;4.28;;;2.20;73.50;;;;;;5042831;28;20164;-89
2021/04/06 01:04:09;;;;;;;15.30;4.53;;;2.20;73.30;;;;;;5041961;28;20168;-89
2021/04/06 01:07:07;;;;;;;5.30;4.57;;;2.20;73.10;;;;;;5040324;28;20207;-89
2021/04/06 01:09:49;;;;;;;13.23;4.13;;;2.30;72.70;;;;;;5047939;28;20531;-89
2021/04/06 01:12:17;;;;;;;7.63;3.63;;;2.30;72.40;;;;;;5043189;28;20325;-89
2021/04/06 01:14:45;;;;;;;5.47;4.10;;;2.20;72.50;;;;;;5048478;28;20172;-89
2021/04/06 01:17:13;;;;;;;9.60;5.07;;;2.20;72.00;;;;;;5047471;28;20224;-89
2021/04/06 01:19:40;;;;;;;18.45;6.07;;;2.20;71.90;;;;;;5052856;28;20221;-89
2021/04/06 01:22:08;;;;;;;11.32;5.30;;;2.30;72.00;;;;;;5053393;28;20174;-89
2021/04/06 01:24:35;;;;;;;8.05;3.42;;;2.40;71.30;;;;;;5052856;28;20192;-90
2021/04/06 01:27:07;;;;;;;11.82;3.63;;;2.30;71.50;;;;;;5051023;28;20226;-89
2021/04/06 01:29:37;;;;;;;11.85;4.47;;;2.30;71.70;;;;;;5052816;28;20214;-89
2021/04/06 01:32:03;;;;;;;7.45;5.25;;;2.30;72.10;;;;;;5055061;28;20172;-89
2021/04/06 01:34:30;;;;;;;16.98;6.15;;;2.20;72.70;;;;;;5048859;28;20168;-89
2021/04/06 01:36:57;;;;;;;8.07;3.80;;;2.20;72.40;;;;;;5017754;28;20238;-89
2021/04/06 01:39:29;;;;;;;5.90;3.20;;;2.30;71.70;;;;;;5050879;28;20207;-89
2021/04/06 01:42:05;;;;;;;7.53;3.35;;;2.20;70.70;;;;;;5027667;28;20175;-90
2021/04/06 01:44:31;;;;;;;6.63;5.00;;;2.20;70.90;;;;;;5046241;28;20178;-89
2021/04/06 01:46:57;;;;;;;5.68;3.40;;;2.20;71.10;;;;;;5044609;28;20176;-89
2021/04/06 01:49:25;;;;;;;5.95;3.78;;;2.20;71.30;;;;;;5045613;28;20172;-89
2021/04/06 01:51:58;;;;;;;11.15;6.50;;;2.20;71.30;;;;;;5050592;28;20182;-88
2021/04/06 01:54:25;;;;;;;11.60;6.07;;;2.20;70.70;;;;;;5045440;28;20188;-88
2021/04/06 01:56:57;;;;;;;7.18;5.07;;;2.10;71.60;;;;;;5047442;28;20183;-88
2021/04/06 01:59:41;;;;;;;9.35;6.13;;;2.10;71.90;;;;;;5057714;28;20176;-88
2021/04/06 02:02:09;;;;;;;8.88;6.55;;;2.00;71.60;;;;;;5057023;28;20148;-89
2021/04/06 02:04:35;;;;;;;10.95;6.45;;;2.00;72.60;;;;;;5055542;28;20227;-89
2021/04/06 02:07:05;;;;;;;11.97;4.57;;;2.10;72.90;;;;;;5047231;28;20180;-88
2021/04/06 02:09:32;;;;;;;13.75;5.90;;;2.10;72.80;;;;;;5043136;28;20889;-89
2021/04/06 02:11:58;;;;;;;8.07;5.07;;;2.10;72.40;;;;;;5042109;28;20168;-89
2021/04/06 02:14:24;;;;;;;8.68;4.78;;;2.00;72.70;;;;;;5043130;28;20168;-88
2021/04/06 02:16:56;;;;;;;5.93;2.92;;;2.10;73.20;;;;;;5045670;28;20283;-90
2021/04/06 02:19:29;;;;;;;5.80;5.25;;;2.20;72.20;;;;;;5042363;28;20172;-88
2021/04/06 02:21:59;;;;;;;3.47;2.90;;;2.20;72.40;;;;;;5043228;28;20172;-88
2021/04/06 02:24:35;;;;;;;5.25;2.90;;;2.10;71.40;;;;;;5039858;28;20185;-90
2021/04/06 02:27:04;;;;;;;2.13;1.90;;;2.00;72.40;;;;;;5041288;28;20608;-88
2021/04/06 02:29:30;;;;;;;2.92;2.50;;;2.00;72.70;;;;;;5042366;28;20199;-88
2021/04/06 02:31:57;;;;;;;5.50;2.37;;;2.10;72.40;;;;;;5044025;28;20662;-89
2021/04/06 02:34:33;;;;;;;7.43;3.35;;;2.20;72.20;;;;;;5047831;28;20438;-88
2021/04/06 02:36:58;;;;;;;6.20;4.60;;;2.10;71.50;;;;;;5046371;28;20179;-88
2021/04/06 02:39:24;;;;;;;7.03;3.80;;;2.00;71.80;;;;;;5044495;28;20164;-88
2021/04/06 02:41:50;;;;;;;6.25;4.18;;;2.00;72.70;;;;;;5042440;28;20175;-88
2021/04/06 02:44:17;;;;;;;14.53;5.80;;;2.10;72.50;;;;;;5043402;28;20251;-89
2021/04/06 02:46:51;;;;;;;7.65;6.57;;;2.80;74.10;;;;;;5050975;28;20214;-89
2021/04/06 02:49:28;;;;;;;12.90;6.43;;;1.70;74.30;;;;;;5052161;28;20176;-88
2021/04/06 02:51:55;;;;;;;9.75;7.47;;;1.90;74.40;;;;;;5053230;28;20191;-89
2021/04/06 02:54:21;;;;;;;12.87;8.53;;;1.80;75.60;;;;;;5049670;28;20263;-88
2021/04/06 02:56:47;;;;;;;8.95;6.88;;;1.80;73.60;;;;;;5043848;28;20186;-88
2021/04/06 02:59:18;;;;;;;20.50;8.93;;;2.00;77.10;;;;;;5047831;28;20200;-88
2021/04/06 03:01:45;;;;;;;11.40;6.90;;;1.70;74.30;;;;;;5047551;28;20172;-88
2021/04/06 03:04:25;;;;;;;8.52;6.82;;;1.70;74.50;;;;;;5041744;28;20168;-86
2021/04/06 03:06:53;;;;;;;6.05;5.38;;;1.80;74.20;;;;;;5048367;28;20195;-89
2021/04/06 03:09:25;;;;;;;7.95;5.72;;;2.50;75.00;;;;;;5047904;28;20226;-88
2021/04/06 03:11:52;;;;;;;6.75;6.10;;;2.70;75.10;;;;;;5047145;28;20171;-89
2021/04/06 03:14:25;;;;;;;7.00;5.53;;;1.70;73.90;;;;;;5046184;28;20179;-89
2021/04/06 03:16:52;;;;;;;9.02;5.57;;;1.90;74.30;;;;;;5045920;28;20258;-86
2021/04/06 03:19:29;;;;;;;8.05;6.22;;;1.60;74.40;;;;;;5044732;28;20175;-89
2021/04/06 03:21:56;;;;;;;9.50;6.00;;;1.70;75.20;;;;;;5047970;28;20172;-89
2021/04/06 03:24:22;;;;;;;7.20;3.80;;;1.00;73.30;;;;;;5043166;28;20165;-89
2021/04/06 03:26:48;;;;;;;7.37;4.50;;;1.70;74.20;;;;;;5039693;28;20167;-88
2021/04/06 03:29:17;;;;;;;5.78;5.07;;;1.80;73.60;;;;;;5040683;28;20164;-88
2021/04/06 03:31:42;;;;;;;7.65;4.15;;;1.70;73.40;;;;;;5046602;28;20616;-87
2021/04/06 03:34:10;;;;;;;5.40;4.90;;;1.60;74.00;;;;;;5045532;28;20223;-88
2021/04/06 03:36:35;;;;;;;8.38;5.75;;;1.50;74.10;;;;;;5039674;28;20315;-88
2021/04/06 03:39:06;;;;;;;8.87;5.20;;;1.40;74.70;;;;;;5037062;28;20642;-89
2021/04/06 03:41:33;;;;;;;9.35;5.07;;;1.30;75.10;;;;;;5040149;28;20164;-87
2021/04/06 03:44:05;;;;;;;14.40;8.50;;;1.30;75.70;;;;;;5042531;28;20766;-91
2021/04/06 03:46:30;;;;;;;15.00;8.77;;;1.30;75.20;;;;;;5043284;28;20314;-90
2021/04/06 03:49:30;;;;;;;17.97;8.60;;;1.30;75.20;;;;;;5050854;28;20263;-88
2021/04/06 03:51:57;;;;;;;10.25;6.57;;;1.30;75.50;;;;;;5043754;28;20180;-87
2021/04/06 04:00:21;;;;;;;15.73;8.70;;;1.30;76.10;;;;;;5057180;28;20156;-90
2021/04/06 04:03:04;;;;;;;15.43;7.65;;;1.20;76.10;;;;;;5054830;28;20183;-87
2021/04/06 04:05:31;;;;;;;16.33;10.48;;;1.40;76.70;;;;;;5056993;28;20234;-86
2021/04/06 04:07:58;;;;;;;22.45;10.60;;;1.40;75.60;;;;;;5027865;28;20574;-89
2021/04/06 04:10:25;;;;;;;20.23;9.50;;;1.50;75.70;;;;;;5048574;28;20271;-87
2021/04/06 04:12:51;;;;;;;17.58;10.65;;;1.50;75.60;;;;;;5058117;28;20163;-87
2021/04/06 04:15:17;;;;;;;19.50;10.10;;;1.40;75.20;;;;;;5053345;28;20176;-87
2021/04/06 04:17:48;;;;;;;19.33;10.15;;;1.40;75.90;;;;;;5049452;28;20251;-87
2021/04/06 04:20:15;;;;;;;15.15;10.02;;;1.40;75.80;;;;;;5047941;28;20159;-86
2021/04/06 04:22:41;;;;;;;19.98;9.73;;;1.50;75.90;;;;;;5050745;28;20259;-87
2021/04/06 04:25:11;;;;;;;23.70;11.83;;;1.50;75.50;;;;;;5043033;28;20705;-86
2021/04/06 04:27:38;;;;;;;20.25;9.85;;;1.50;75.70;;;;;;5046878;28;20396;-85
2021/04/06 04:30:05;;;;;;;21.00;9.73;;;1.50;76.10;;;;;;5048177;28;20168;-86
2021/04/06 04:32:30;;;;;;;15.23;10.48;;;1.50;75.60;;;;;;5039855;28;20198;-86
2021/04/06 04:34:56;;;;;;;17.47;9.10;;;1.40;75.80;;;;;;5037579;28;20288;-87
2021/04/06 04:37:21;;;;;;;15.57;8.47;;;1.40;76.50;;;;;;5041843;28;20176;-87
2021/04/06 04:39:47;;;;;;;12.93;7.50;;;1.30;76.30;;;;;;5045893;28;20170;-87
2021/04/06 04:42:12;;;;;;;15.17;6.83;;;1.20;76.10;;;;;;5047833;28;20206;-87
2021/04/06 04:44:38;;;;;;;18.13;6.47;;;1.20;76.00;;;;;;5042286;28;20267;-87
2021/04/06 04:47:04;;;;;;;7.67;5.50;;;1.20;76.20;;;;;;5046144;28;20176;-88
2021/04/06 04:49:29;;;;;;;8.53;4.37;;;1.20;76.20;;;;;;5043688;28;20176;-87
2021/04/06 04:51:55;;;;;;;7.83;3.23;;;1.10;76.50;;;;;;5042029;28;20420;-88
2021/04/06 04:54:21;;;;;;;9.17;3.00;;;1.10;76.40;;;;;;5036397;28;20176;-87
2021/04/06 04:56:46;;;;;;;9.03;4.17;;;1.10;75.80;;;;;;5035454;28;20171;-87
2021/04/06 04:59:12;;;;;;;6.23;3.67;;;1.10;75.90;;;;;;5034726;28;20255;-87
2021/04/06 05:01:38;;;;;;;13.23;3.50;;;1.20;75.20;;;;;;5036147;28;20172;-87
2021/04/06 05:04:03;;;;;;;5.40;2.60;;;2.00;76.60;;;;;;5038075;28;20164;-86
2021/04/06 05:06:29;;;;;;;6.23;2.27;;;1.20;75.10;;;;;;5038586;28;20778;-87
2021/04/06 05:08:54;;;;;;;6.10;3.30;;;1.20;75.50;;;;;;5038188;28;20502;-86
2021/04/06 05:11:20;;;;;;;7.23;3.00;;;1.30;75.00;;;;;;5038435;28;20257;-86
2021/04/06 05:13:47;;;;;;;8.67;4.07;;;1.30;75.00;;;;;;5042095;28;20171;-87
2021/04/06 05:16:13;;;;;;;7.60;3.05;;;1.30;75.10;;;;;;5041471;28;20220;-87
2021/04/06 05:18:39;;;;;;;14.50;3.73;;;1.30;75.30;;;;;;4676650;28;10000355;-86
2021/04/06 05:21:05;;;;;;;12.23;4.10;;;1.20;75.00;;;;;;5024195;28;20180;-88
2021/04/06 05:23:31;;;;;;;9.40;3.30;;;1.20;75.20;;;;;;5021720;28;20694;-87
2021/04/06 05:25:56;;;;;;;8.60;4.53;;;1.20;75.80;;;;;;5022311;28;20219;-87
2021/04/06 05:28:22;;;;;;;8.90;5.00;;;1.40;75.20;;;;;;5020517;28;20176;-87
2021/04/06 05:30:48;;;;;;;10.20;4.33;;;1.50;74.40;;;;;;5021112;28;20232;-85
2021/04/06 05:33:13;;;;;;;8.93;4.90;;;1.50;73.90;;;;;;5020241;28;20180;-88
2021/04/06 05:35:39;;;;;;;16.17;5.90;;;1.70;74.60;;;;;;5019699;28;20697;-90
2021/04/06 05:38:04;;;;;;;16.60;6.87;;;1.60;74.20;;;;;;5017678;28;20176;-87
2021/04/06 05:40:30;;;;;;;12.53;6.83;;;2.10;74.70;;;;;;5018621;28;20180;-87
2021/04/06 05:43:01;;;;;;;11.33;6.97;;;1.50;74.40;;;;;;5017910;28;20204;-87
2021/04/06 05:45:29;;;;;;;14.27;7.65;;;0.70;73.80;;;;;;5019682;28;20192;-87
2021/04/06 05:47:56;;;;;;;17.92;9.30;;;2.70;75.20;;;;;;5016153;28;20181;-87
2021/04/06 05:50:22;;;;;;;13.77;6.90;;;1.60;73.60;;;;;;5017021;28;20648;-86
2021/04/06 05:52:48;;;;;;;12.07;6.23;;;1.60;74.20;;;;;;5014282;28;20185;-87
2021/04/06 05:55:13;;;;;;;20.90;7.10;;;1.10;73.10;;;;;;5013398;28;20172;-87
2021/04/06 05:57:39;;;;;;;10.17;4.80;;;1.60;73.70;;;;;;5010721;28;20173;-85
2021/04/06 06:00:09;;;;;;;12.80;5.57;;;1.70;74.00;;;;;;5008984;28;20184;-88
2021/04/06 06:02:39;;;;;;;19.65;7.55;;;1.60;73.20;;;;;;5019129;28;20168;-88
2021/04/06 06:05:09;;;;;;;13.98;5.72;;;1.60;73.30;;;;;;5018421;28;20193;-87
2021/04/06 06:07:34;;;;;;;13.20;7.35;;;1.60;73.90;;;;;;5016886;28;20172;-87
2021/04/06 06:10:24;;;;;;;20.40;6.03;;;1.70;73.40;;;;;;5019266;28;20176;-86
2021/04/06 06:12:50;;;;;;;12.35;5.13;;;1.70;73.40;;;;;;5023335;28;20203;-87
2021/04/06 06:15:16;;;;;;;9.67;4.13;;;1.70;74.00;;;;;;5018390;28;20211;-87
2021/04/06 06:18:00;;;;;;;13.47;3.97;;;1.90;72.80;;;;;;5028873;28;20441;-88
2021/04/06 06:20:25;;;;;;;12.20;4.05;;;2.00;72.50;;;;;;5037771;28;20631;-87
2021/04/06 06:22:52;;;;;;;17.23;4.23;;;2.10;71.90;;;;;;5039852;28;20191;-88
2021/04/06 06:25:18;;;;;;;6.25;3.17;;;2.00;71.70;;;;;;5038181;28;20369;-89
2021/04/06 06:27:46;;;;;;;6.70;3.83;;;2.10;72.50;;;;;;5040167;28;20207;-88
2021/04/06 06:30:32;;;;;;;8.13;4.10;;;2.30;69.60;;;;;;5037521;28;20403;-88
2021/04/06 06:33:24;;;;;;;13.95;4.13;;;2.10;70.00;;;;;;5039555;28;20608;-87
2021/04/06 06:35:52;;;;;;;11.00;4.97;;;1.90;70.30;;;;;;5039455;28;20182;-87
2021/04/06 06:38:31;;;;;;;13.30;5.85;;;1.80;71.20;;;;;;5047326;28;20176;-85
2021/04/06 06:41:08;;;;;;;8.98;6.28;;;1.60;71.70;;;;;;5035468;28;20180;-88
2021/04/06 06:43:35;;;;;;;10.82;7.75;;;2.60;76.40;;;;;;4999543;28;20169;-88
2021/04/06 06:46:01;;;;;;;8.63;7.85;;;1.50;74.50;;;;;;5005037;28;20216;-87
2021/04/06 06:48:34;;;;;;;12.30;8.35;;;3.10;76.40;;;;;;5003003;28;20180;-89
2021/04/06 06:51:02;;;;;;;10.32;7.38;;;1.50;74.40;;;;;;5016327;28;20535;-89
2021/04/06 06:53:36;;;;;;;11.45;7.20;;;1.70;74.90;;;;;;5214818;23;22216;-85
2021/04/06 06:56:05;;;;;;;6.40;5.72;;;2.00;75.20;;;;;;5058484;28;20243;-86
2021/04/06 06:58:49;;;;;;;14.10;8.82;;;1.80;73.30;;;;;;5055422;28;20172;-89
2021/04/06 07:01:31;;;;;;;12.77;7.82;;;1.90;73.00;;;;;;5055737;28;20180;-86
2021/04/06 07:04:06;;;;;;;11.73;7.30;;;1.30;73.20;;;;;;5056721;28;20223;-88
2021/04/06 07:06:34;;;;;;;16.27;7.60;;;1.90;72.50;;;;;;5055378;28;20222;-89
2021/04/06 07:09:24;;;;;;;13.32;7.38;;;2.30;74.30;;;;;;5054091;28;20191;-90
2021/04/06 07:12:00;;;;;;;8.13;6.32;;;2.20;73.00;;;;;;5053772;28;20160;-87
2021/04/06 07:14:27;;;;;;;8.00;6.55;;;1.70;71.90;;;;;;5055219;28;20263;-88
2021/04/06 07:16:58;;;;;;;11.65;6.43;;;2.50;73.00;;;;;;5053918;28;20187;-88
2021/04/06 07:19:24;;;;;;;16.48;9.93;;;4.00;74.30;;;;;;5052245;28;20172;-87
2021/04/06 07:21:55;;;;;;;19.20;10.83;;;3.20;73.70;;;;;;5047499;28;20176;-88
2021/04/06 07:24:28;;;;;;;9.35;7.45;;;3.70;75.70;;;;;;5049519;28;20410;-87
2021/04/06 07:27:05;;;;;;;13.73;8.70;;;2.80;72.70;;;;;;5049255;28;20172;-88
2021/04/06 07:29:37;;;;;;;15.40;8.20;;;3.50;70.50;;;;;;5050084;28;20507;-88
2021/04/06 07:32:14;;;;;;;17.45;7.40;;;2.60;70.00;;;;;;5045118;28;20317;-88
2021/04/06 07:34:44;;;;;;;12.30;7.05;;;2.50;68.60;;;;;;5037896;28;20229;-88
2021/04/06 07:37:10;;;;;;;8.15;4.97;;;2.40;70.00;;;;;;5038476;28;20163;-88
2021/04/06 07:39:36;;;;;;;8.90;6.20;;;2.90;69.40;;;;;;5035745;28;20172;-88
2021/04/06 07:42:02;;;;;;;7.00;4.38;;;2.70;68.70;;;;;;5037997;28;20164;-87
2021/04/06 07:44:30;;;;;;;7.93;6.07;;;2.90;67.80;;;;;;5040578;28;20553;-88
2021/04/06 07:46:58;;;;;;;9.63;6.15;;;3.00;65.90;;;;;;5048226;28;20194;-85
2021/04/06 07:49:25;;;;;;;12.30;5.20;;;2.90;67.00;;;;;;5049229;28;20224;-85
2021/04/06 07:51:53;;;;;;;7.83;4.90;;;2.90;67.40;;;;;;5045641;28;20174;-85
2021/04/06 07:54:20;;;;;;;9.43;4.85;;;3.20;67.20;;;;;;5040592;28;20851;-88
2021/04/06 07:56:57;;;;;;;10.93;4.68;;;3.10;66.00;;;;;;5040084;28;20183;-85
2021/04/06 07:59:23;;;;;;;5.47;4.15;;;3.10;66.40;;;;;;5040667;28;20172;-86
2021/04/06 08:01:54;;;;;;;3.60;3.30;;;3.30;67.90;;;;;;5043601;28;20175;-90
2021/04/06 08:04:24;;;;;;;4.47;2.80;;;3.50;66.20;;;;;;5043591;28;20172;-90
2021/04/06 08:06:52;;;;;;;7.60;3.25;;;3.90;63.40;;;;;;5048890;28;20247;-87
2021/04/06 08:09:52;;;;;;;9.70;2.70;;;4.10;63.40;;;;;;5052837;28;20199;-86
2021/04/06 08:12:37;;;;;;;7.18;3.33;;;4.00;61.10;;;;;;5055445;28;20182;-89
2021/04/06 08:15:11;;;;;;;4.72;3.30;;;3.40;61.20;;;;;;5038619;28;20183;-87
2021/04/06 08:17:54;;;;;;;4.57;3.15;;;4.00;60.30;;;;;;5054138;28;20176;-89
2021/04/06 08:20:40;;;;;;;5.50;3.13;;;5.10;60.60;;;;;;5053169;28;20159;-90
2021/04/06 08:23:14;;;;;;;5.35;3.15;;;4.40;59.10;;;;;;5053697;28;20156;-90
2021/04/06 08:25:43;;;;;;;13.82;3.97;;;5.20;61.40;;;;;;5053512;28;20206;-88
2021/04/06 08:28:34;;;;;;;6.93;2.58;;;5.90;58.90;;;;;;5050691;28;20168;-87
2021/04/06 08:31:30;;;;;;;3.33;2.88;;;6.10;57.80;;;;;;5053736;28;20167;-90
2021/04/06 08:34:30;;;;;;;3.80;1.98;;;6.30;56.80;;;;;;5046859;28;20203;-87
2021/04/06 08:37:08;;;;;;;3.88;2.58;;;6.50;56.00;;;;;;5053189;28;20171;-90
2021/04/06 08:39:35;;;;;;;4.38;1.60;;;6.10;54.60;;;;;;5054389;28;20156;-86
2021/04/06 08:42:03;;;;;;;6.05;2.53;;;5.00;54.10;;;;;;5054277;28;20160;-89
2021/04/06 08:44:38;;;;;;;7.18;2.60;;;7.40;57.10;;;;;;5054979;28;20183;-87
2021/04/06 08:47:04;;;;;;;5.63;2.00;;;6.60;55.80;;;;;;5054444;28;20187;-88
2021/04/06 08:54:42;;;;;;;9.30;3.23;;;4.80;56.60;;;;;;3786925;22;10002092;-88
2021/04/06 08:57:09;;;;;;;12.87;3.30;;;4.30;56.70;;;;;;5031334;28;20199;-88
2021/04/06 08:59:39;;;;;;;1.90;1.90;;;4.80;58.10;;;;;;5033993;28;20184;-86
2021/04/06 09:05:06;;;;;;;2.83;2.08;;;5.80;56.90;;;;;;5500177;22;20243;-91
2021/04/06 09:10:35;;;;;;;5.70;2.30;;;4.90;57.00;;;;;;996505;26;20500;-86
2021/04/06 09:13:11;;;;;;;2.90;2.70;;;4.30;55.60;;;;;;5193345;22;20248;-90
2021/04/06 09:15:51;;;;;;;6.18;2.80;;;5.00;56.40;;;;;;5011302;28;20181;-88
2021/04/06 09:18:16;;;;;;;2.00;1.90;;;5.00;56.00;;;;;;5006110;28;20243;-88
2021/04/06 09:20:42;;;;;;;3.60;1.90;;;4.50;55.20;;;;;;4987265;28;20185;-87
2021/04/06 09:23:07;;;;;;;14.13;3.10;;;4.30;56.40;;;;;;4997263;28;20203;-88
2021/04/06 09:25:33;;;;;;;6.90;2.43;;;4.60;57.40;;;;;;4993064;28;20205;-87
2021/04/06 09:28:02;;;;;;;1.93;1.80;;;4.60;56.00;;;;;;4994638;28;20632;-89
2021/04/06 09:30:33;;;;;;;2.00;1.90;;;5.20;55.40;;;;;;4994126;28;20173;-88
2021/04/06 09:33:04;;;;;;;3.70;2.55;;;6.50;54.30;;;;;;4994654;28;20169;-86
2021/04/06 09:35:30;;;;;;;3.25;2.30;;;7.60;51.60;;;;;;4996115;28;20216;-90
2021/04/06 09:37:58;;;;;;;2.30;1.90;;;9.10;48.50;;;;;;4996219;28;20200;-86
2021/04/06 09:40:35;;;;;;;2.10;2.00;;;9.50;47.20;;;;;;4998520;28;20474;-86
2021/04/06 09:43:02;;;;;;;3.60;2.28;;;9.00;45.20;;;;;;4997155;28;20771;-87
2021/04/06 09:45:28;;;;;;;4.80;2.40;;;8.90;46.40;;;;;;4996706;28;20803;-85
2021/04/06 09:47:54;;;;;;;1.30;1.30;;;8.60;45.50;;;;;;4996712;28;20409;-85
2021/04/06 09:50:20;;;;;;;4.50;2.33;;;8.50;45.30;;;;;;4995486;28;20201;-84
2021/04/06 09:52:45;;;;;;;7.50;5.30;;;8.30;44.90;;;;;;4996297;28;20415;-84
2021/04/06 09:55:12;;;;;;;2.47;1.33;;;9.00;46.90;;;;;;4996606;28;20756;-88
2021/04/06 09:57:48;;;;;;;2.97;1.63;;;9.80;43.80;;;;;;5005509;28;20176;-87
2021/04/06 10:00:33;;;;;;;1.70;1.60;;;9.40;43.40;;;;;;5004852;28;20510;-88
2021/04/06 10:03:18;;;;;;;2.07;1.87;;;8.00;45.40;;;;;;5003991;28;20423;-88
2021/04/06 10:05:45;;;;;;;3.50;2.47;;;7.70;47.00;;;;;;4999653;28;20796;-87
2021/04/06 10:08:12;;;;;;;3.13;1.60;;;8.20;49.30;;;;;;5005538;28;20169;-85
2021/04/06 10:10:47;;;;;;;1.60;1.38;;;8.00;46.20;;;;;;4999541;28;20173;-87
2021/04/06 10:13:13;;;;;;;4.10;1.55;;;7.80;46.90;;;;;;5000554;28;20308;-89
2021/04/06 10:15:40;;;;;;;4.57;2.40;;;7.80;48.30;;;;;;4996408;28;20212;-89
2021/04/06 10:18:15;;;;;;;7.32;2.75;;;7.10;48.00;;;;;;4998497;28;20185;-88
2021/04/06 10:20:46;;;;;;;2.65;2.45;;;6.60;49.00;;;;;;5000896;28;20250;-86
2021/04/06 10:23:29;;;;;;;1.75;1.20;;;6.50;49.70;;;;;;5002962;28;20542;-88
2021/04/06 10:25:55;;;;;;;4.70;1.60;;;6.70;50.40;;;;;;5009809;28;20207;-89
2021/04/06 10:28:24;;;;;;;2.37;2.30;;;8.30;48.30;;;;;;5008582;28;20456;-86
2021/04/06 10:31:07;;;;;;;2.03;1.83;;;8.80;46.70;;;;;;5003546;28;20223;-87
2021/04/06 10:33:40;;;;;;;2.00;1.65;;;9.20;45.90;;;;;;5002359;28;20427;-89
2021/04/06 10:36:16;;;;;;;1.40;1.38;;;9.10;46.00;;;;;;4999650;28;20205;-88
2021/04/06 10:38:43;;;;;;;2.20;2.00;;;8.70;46.10;;;;;;4999871;28;20165;-87
2021/04/06 10:41:14;;;;;;;6.03;2.55;;;7.60;47.90;;;;;;5015169;28;20259;-87
2021/04/06 10:44:12;;;;;;;1.97;1.87;;;8.80;50.50;;;;;;5016521;28;20179;-87
2021/04/06 10:46:43;;;;;;;7.93;2.70;;;7.80;49.30;;;;;;5023926;28;20562;-88
2021/04/06 10:49:08;;;;;;;2.90;2.03;;;8.60;48.00;;;;;;5021963;28;20192;-86
2021/04/06 10:51:35;;;;;;;2.47;1.80;;;10.10;45.50;;;;;;5021514;28;20416;-89
2021/04/06 10:54:09;;;;;;;2.07;1.80;;;10.90;43.70;;;;;;5022357;28;20208;-90
2021/04/06 10:56:56;;;;;;;1.73;1.03;;;11.00;42.00;;;;;;5025810;28;20414;-89
2021/04/06 10:59:37;;;;;;;1.50;1.40;;;10.90;42.30;;;;;;5025375;28;20423;-89
2021/04/06 11:02:05;;;;;;;4.30;2.33;;;10.60;41.60;;;;;;5025973;28;20436;-86
2021/04/06 11:04:39;;;;;;;1.80;1.80;;;9.80;43.30;;;;;;5029507;28;20440;-88
2021/04/06 11:07:09;;;;;;;2.50;1.87;;;10.00;41.20;;;;;;5026532;28;20786;-90
2021/04/06 11:09:47;;;;;;;2.95;1.98;;;9.60;42.50;;;;;;5028200;28;20415;-90
2021/04/06 11:12:17;;;;;;;3.90;1.60;;;10.80;41.70;;;;;;5030660;28;20231;-88
2021/04/06 11:14:46;;;;;;;1.83;1.77;;;10.70;40.00;;;;;;5018296;28;20427;-88
2021/04/06 11:17:14;;;;;;;3.10;2.70;;;11.30;37.40;;;;;;5033277;28;20403;-87
2021/04/06 11:25:29;;;;;;;1.10;1.10;;;13.20;32.50;;;;;;5232441;22;20536;31
2021/04/06 11:27:58;;;;;;;2.10;1.57;;;13.20;33.30;;;;;;5452124;22;20480;-89
2021/04/06 11:30:43;;;;;;;1.50;1.40;;;13.40;32.10;;;;;;5035970;28;20423;-90
2021/04/06 11:33:10;;;;;;;2.57;1.40;;;13.40;31.80;;;;;;5033980;28;20432;-90
2021/04/06 11:38:15;;;;;;;1.40;1.40;;;14.00;29.70;;;;;;5146424;22;20484;-87
2021/04/06 11:40:54;;;;;;;1.63;1.53;;;13.40;31.40;;;;;;5016906;28;20451;-89
2021/04/06 11:43:43;;;;;;;1.63;1.53;;;13.10;29.60;;;;;;5015994;28;20463;-89
2021/04/06 11:46:10;;;;;;;2.30;1.67;;;12.20;30.50;;;;;;5014310;28;20451;-90
2021/04/06 11:48:39;;;;;;;2.13;2.03;;;12.70;31.90;;;;;;4997380;28;20435;-87
2021/04/06 11:51:08;;;;;;;2.13;1.40;;;10.50;33.10;;;;;;5015498;28;20492;-89
2021/04/06 11:53:37;;;;;;;1.65;1.55;;;9.20;38.80;;;;;;5095422;22;20487;-88
2021/04/06 11:56:07;;;;;;;2.15;1.25;;;7.80;40.30;;;;;;5033264;28;20165;-87
2021/04/06 11:58:36;;;;;;;2.47;1.33;;;6.30;41.30;;;;;;5318781;22;20208;-88
2021/04/06 12:01:02;;;;;;;2.50;2.10;;;8.80;46.50;;;;;;5033325;28;20255;-89
2021/04/06 12:03:28;;;;;;;3.05;1.70;;;5.90;46.80;;;;;;5034300;28;20195;-90
2021/04/06 12:05:56;;;;;;;5.80;2.40;;;6.80;50.00;;;;;;5033985;28;20200;-88
2021/04/06 12:08:23;;;;;;;3.70;2.60;;;4.80;48.60;;;;;;5031597;28;20177;-88
2021/04/06 12:10:49;;;;;;;1.45;1.45;;;5.50;52.00;;;;;;5031550;28;20319;-88
2021/04/06 12:13:18;;;;;;;2.00;1.90;;;5.50;56.00;;;;;;5031619;28;20173;-88
2021/04/06 12:15:44;;;;;;;3.33;2.75;;;4.40;57.60;;;;;;5028231;28;20604;-89
2021/04/06 12:18:11;;;;;;;3.67;1.50;;;3.60;58.80;;;;;;5025576;28;20172;-89
2021/04/06 12:20:37;;;;;;;4.55;2.25;;;3.90;60.20;;;;;;5023330;28;20207;-90
2021/04/06 12:23:03;;;;;;;3.60;1.73;;;4.30;62.80;;;;;;5022587;28;20184;-87
2021/04/06 12:25:29;;;;;;;5.63;2.07;;;4.80;59.90;;;;;;5021777;28;20220;-89
2021/04/06 12:27:54;;;;;;;2.47;1.00;;;4.20;59.80;;;;;;5019995;28;20176;-89
2021/04/06 12:30:20;;;;;;;1.40;0.60;;;4.10;58.80;;;;;;5024168;28;20176;-89
2021/04/06 12:32:46;;;;;;;48.50;21.83;;;4.20;58.30;;;;;;5021384;28;20187;-90
2021/04/06 12:35:12;;;;;;;3.23;2.83;;;5.10;59.30;;;;;;5024636;28;20415;-89
2021/04/06 12:37:41;;;;;;;1.70;1.70;;;4.80;59.20;;;;;;5026716;28;20438;-87
2021/04/06 12:40:07;;;;;;;1.63;1.52;;;5.10;56.90;;;;;;5023408;28;20195;-87
2021/04/06 12:42:34;;;;;;;3.83;1.77;;;6.60;55.60;;;;;;4681240;28;9999777;-89
2021/04/06 12:45:08;;;;;;;1.73;1.63;;;6.60;53.30;;;;;;5028747;28;20192;-90
2021/04/06 12:47:34;;;;;;;1.17;0.90;;;7.20;53.10;;;;;;5027882;28;20172;-90
2021/04/06 12:50:08;;;;;;;2.70;1.53;;;6.80;53.80;;;;;;5029227;28;20167;-89
2021/04/06 12:52:34;;;;;;;2.47;1.40;;;6.10;53.60;;;;;;5028760;28;20511;-90
2021/04/06 12:54:59;;;;;;;1.37;1.27;;;5.60;55.80;;;;;;5029925;28;20179;-89
2021/04/06 12:58:08;;;;;;;0.80;0.80;;;5.50;56.40;;;;;;5029512;28;20435;-86
2021/04/06 13:00:42;;;;;;;0.90;0.90;;;5.40;55.50;;;;;;4975304;28;20252;-89
2021/04/06 13:03:07;;;;;;;0.95;0.95;;;5.00;57.70;;;;;;5012373;28;20219;-89
2021/04/06 13:05:34;;;;;;;1.93;1.93;;;5.10;58.60;;;;;;5027178;28;20208;-87
2021/04/06 13:08:01;;;;;;;2.20;2.10;;;6.40;58.90;;;;;;5033037;28;20167;-88
2021/04/06 13:10:33;;;;;;;3.83;3.63;;;6.00;57.70;;;;;;5036576;28;20198;-90
2021/04/06 13:13:13;;;;;;;6.30;5.90;;;6.20;57.00;;;;;;5029857;28;20173;-87
2021/04/06 13:15:40;;;;;;;7.53;7.03;;;7.10;54.30;;;;;;5003344;28;20185;-87
2021/04/06 13:18:25;;;;;;;9.02;8.25;;;7.90;54.40;;;;;;5002587;28;20217;-89
2021/04/06 13:20:56;;;;;;;12.48;11.38;;;8.00;51.90;;;;;;5020477;28;20200;-89
2021/04/06 13:23:22;;;;;;;12.85;11.48;;;8.30;53.40;;;;;;5179845;22;20286;-88
2021/04/06 13:28:23;;;;;;;5.85;5.63;;;8.50;50.80;;;;;;5015778;28;20319;-87
2021/04/06 13:30:49;;;;;;;5.97;5.35;;;8.80;53.00;;;;;;5019242;28;20193;-88
2021/04/06 13:33:24;;;;;;;6.60;6.20;;;9.00;51.90;;;;;;5020795;28;20174;-91
2021/04/06 13:35:54;;;;;;;6.20;5.90;;;9.40;50.30;;;;;;5019453;28;20479;-87
2021/04/06 13:38:21;;;;;;;4.20;3.87;;;9.50;50.00;;;;;;5016090;28;20433;-89